Time;durP1;ratioP1;P1;durP2;ratioP2;P2;SDS_P1;SDS_P2;PMS_P1;PMS_P2;Temp;Humidity;BMP_temperature;BMP_pressure;BME280_temperature;BME280_humidity;BME280_pressure;Samples;Min_cycle;Max_cycle;Signal;HPM_P1;HPM_P2
2024/01/19 00:01:33;;;;;;;29.88;13.18;;;-1.60;99.90;;;-2.73;100.00;96804.13;4993424;28;20034;-37
2024/01/19 00:03:59;;;;;;;29.70;13.48;;;-1.60;99.90;;;-2.63;100.00;96805.03;4992464;28;20095;-37
2024/01/19 00:06:25;;;;;;;28.08;13.52;;;-1.50;99.90;;;-2.57;100.00;96819.69;4987228;28;20037;-37
2024/01/19 00:08:51;;;;;;;31.13;13.35;;;-1.40;99.90;;;-2.61;100.00;96821.38;4988534;28;20430;-37
2024/01/19 00:11:17;;;;;;;30.55;13.98;;;-1.50;99.90;;;-2.60;100.00;96820.56;4990376;28;20296;-37
2024/01/19 00:13:43;;;;;;;27.80;14.13;;;-1.40;99.90;;;-2.65;100.00;96822.22;4993193;28;20415;-37
2024/01/19 00:16:09;;;;;;;28.25;13.18;;;-1.40;99.90;;;-2.65;100.00;96822.22;4988567;28;20365;-37
2024/01/19 00:18:35;;;;;;;24.73;12.35;;;-1.50;99.90;;;-2.64;100.00;96823.94;4992156;28;20072;-37
2024/01/19 00:21:01;;;;;;;29.33;14.38;;;-1.50;99.90;;;-2.64;100.00;96826.53;4990851;28;20038;-37
2024/01/19 00:23:27;;;;;;;32.78;14.93;;;-1.40;99.90;;;-2.69;100.00;96825.66;4988354;28;20036;-37
2024/01/19 00:25:53;;;;;;;36.90;14.07;;;-1.50;99.90;;;-2.75;100.00;96817.88;4992272;28;20040;-37
2024/01/19 00:28:18;;;;;;;34.72;15.15;;;-1.50;99.90;;;-2.74;100.00;96837.66;4991227;28;20030;-37
2024/01/19 00:30:44;;;;;;;31.63;14.15;;;-1.50;99.90;;;-2.73;100.00;96841.97;4987944;28;20026;-37
2024/01/19 00:33:11;;;;;;;25.83;13.65;;;-1.50;99.90;;;-2.76;100.00;96845.41;4993531;28;20073;-37
2024/01/19 00:35:37;;;;;;;30.95;14.02;;;-1.50;99.90;;;-2.83;100.00;96837.63;4993574;28;20164;-37
2024/01/19 00:38:03;;;;;;;31.23;14.10;;;-1.60;99.90;;;-2.78;100.00;96849.69;4977685;28;20467;-37
2024/01/19 00:40:30;;;;;;;32.67;14.13;;;-1.60;99.90;;;-2.85;100.00;96839.28;4986183;28;20057;-37
2024/01/19 00:42:55;;;;;;;31.38;14.40;;;-1.60;99.90;;;-2.82;100.00;96847.06;4995432;28;20030;-37
2024/01/19 00:45:22;;;;;;;35.20;15.40;;;-1.60;99.90;;;-2.79;100.00;96849.69;4991662;28;20034;-37
2024/01/19 00:47:47;;;;;;;33.60;15.07;;;-1.60;99.90;;;-2.98;100.00;96823.75;4992021;28;20793;-37
2024/01/19 00:50:13;;;;;;;30.63;14.38;;;-1.60;99.90;;;-2.78;100.00;96864.28;4992436;28;20038;-37
2024/01/19 00:52:39;;;;;;;29.13;14.55;;;-1.60;99.90;;;-2.80;100.00;96863.41;4995305;28;20119;-36
2024/01/19 00:55:06;;;;;;;28.88;13.40;;;-1.60;99.90;;;-2.81;100.00;96866.88;4995467;28;20486;-37
2024/01/19 00:57:32;;;;;;;33.33;14.90;;;-1.60;99.90;;;-2.91;100.00;96868.50;4993279;28;21817;-37
2024/01/19 00:59:57;;;;;;;29.95;13.77;;;-1.60;99.90;;;-2.86;100.00;96866.81;4994555;28;20189;-37
2024/01/19 01:02:27;;;;;;;32.80;13.65;;;-1.60;99.90;;;-2.89;100.00;96867.69;4991180;28;20109;-37
2024/01/19 01:04:54;;;;;;;30.90;14.02;;;-1.60;99.90;;;-2.82;100.00;96880.63;4995324;28;20029;-36
2024/01/19 01:07:21;;;;;;;30.70;13.93;;;-1.60;99.90;;;-2.81;100.00;96888.38;4991659;28;20029;-37
2024/01/19 01:09:47;;;;;;;29.05;13.40;;;-1.60;99.90;;;-2.89;100.00;96880.59;4979749;28;20049;-37
2024/01/19 01:12:13;;;;;;;30.27;13.25;;;-1.60;99.90;;;-2.81;100.00;96896.13;4991369;28;20030;-36
2024/01/19 01:14:39;;;;;;;28.83;12.38;;;-1.60;99.90;;;-2.78;100.00;96900.44;4997454;28;20045;-35
2024/01/19 01:17:05;;;;;;;36.05;13.20;;;-1.60;99.90;;;-2.79;100.00;96901.28;4994077;28;20479;-36
2024/01/19 01:19:32;;;;;;;31.55;14.00;;;-1.60;99.90;;;-2.91;100.00;96899.47;4982249;28;20073;-36
2024/01/19 01:21:58;;;;;;;28.95;13.77;;;-1.60;99.90;;;-2.76;100.00;96916.81;4995923;28;20360;-36
2024/01/19 01:24:24;;;;;;;30.65;13.60;;;-1.60;99.90;;;-2.76;100.00;96922.84;4992094;28;20506;-36
2024/01/19 01:26:49;;;;;;;29.70;14.25;;;-1.60;99.90;;;-2.76;100.00;96925.41;4998819;28;20048;-35
2024/01/19 01:29:15;;;;;;;29.13;13.70;;;-1.60;99.90;;;-2.76;100.00;96928.00;4992234;28;20080;-37
2024/01/19 01:31:41;;;;;;;31.17;13.65;;;-1.60;99.90;;;-2.81;100.00;96928.81;4993798;28;20121;-37
2024/01/19 01:34:07;;;;;;;31.40;13.55;;;-1.60;99.90;;;-2.77;100.00;96935.72;4998272;28;20026;-37
2024/01/19 01:36:33;;;;;;;29.08;14.18;;;-1.60;99.90;;;-2.76;100.00;96947.78;4997015;28;20032;-37
2024/01/19 01:38:59;;;;;;;26.40;13.02;;;-1.60;99.90;;;-2.78;100.00;96950.34;4997445;28;20335;-37
2024/01/19 01:41:24;;;;;;;25.23;12.75;;;-1.60;99.90;;;-2.75;100.00;96952.09;4996519;28;20034;-37
2024/01/19 01:43:50;;;;;;;28.15;12.35;;;-1.60;99.90;;;-2.74;100.00;96956.41;4997198;28;20084;-37
2024/01/19 01:46:16;;;;;;;27.38;12.02;;;-1.60;99.90;;;-2.73;100.00;96958.13;4993078;28;20061;-37
2024/01/19 01:48:41;;;;;;;29.88;12.68;;;-1.60;99.90;;;-2.70;100.00;96958.16;4993453;28;20562;-37
2024/01/19 01:51:08;;;;;;;25.17;12.13;;;-1.50;99.90;;;-2.68;100.00;96966.75;4999618;28;20042;-37
2024/01/19 01:53:35;;;;;;;29.52;12.45;;;-1.60;99.90;;;-2.69;100.00;96962.47;4996159;28;20038;-37
2024/01/19 01:56:02;;;;;;;25.23;11.90;;;-1.50;99.90;;;-2.67;100.00;96963.34;4995517;28;20241;-37
2024/01/19 01:58:28;;;;;;;30.55;13.32;;;-1.50;99.90;;;-2.74;100.00;96971.88;4999216;28;20029;-37
2024/01/19 02:00:54;;;;;;;28.88;12.73;;;-1.50;99.90;;;-2.78;100.00;96968.41;4995361;28;20103;-37
2024/01/19 02:03:19;;;;;;;29.05;13.27;;;-1.60;99.90;;;-2.77;100.00;96977.88;4996835;28;20033;-37
2024/01/19 02:05:45;;;;;;;29.08;13.93;;;-1.60;99.90;;;-2.79;100.00;96973.56;4997029;28;20046;-37
2024/01/19 02:08:11;;;;;;;31.80;13.65;;;-1.60;99.90;;;-2.79;100.00;96973.56;4997310;28;20033;-37
2024/01/19 02:10:36;;;;;;;30.25;14.40;;;-1.60;99.90;;;-2.83;100.00;96970.09;4996253;28;20036;-37
2024/01/19 02:13:02;;;;;;;29.40;13.80;;;-1.60;99.90;;;-2.85;100.00;96970.91;4997053;28;20120;-37
2024/01/19 02:15:30;;;;;;;31.90;14.02;;;-1.60;99.90;;;-2.91;100.00;96974.31;4996354;28;20030;-37
2024/01/19 02:17:55;;;;;;;34.58;13.48;;;-1.70;99.90;;;-2.99;100.00;96974.25;4994816;28;20055;-37
2024/01/19 02:20:21;;;;;;;29.52;13.40;;;-1.70;99.90;;;-3.06;100.00;96959.56;4992028;28;20495;-37
2024/01/19 02:22:49;;;;;;;23.25;12.55;;;-1.70;99.90;;;-2.96;100.00;96987.19;4995687;28;20090;-37
2024/01/19 02:25:14;;;;;;;32.78;13.63;;;-1.70;99.90;;;-2.91;100.00;96989.78;4998341;28;20430;-37
2024/01/19 02:27:40;;;;;;;26.23;13.10;;;-1.70;99.90;;;-2.90;100.00;96992.38;4994654;28;20030;-37
2024/01/19 02:30:10;;;;;;;30.67;14.05;;;-1.70;99.90;;;-2.88;100.00;96992.41;4997386;28;20034;-37
2024/01/19 02:32:36;;;;;;;26.70;12.85;;;-1.70;99.90;;;-2.91;100.00;96969.13;4995943;28;20111;-36
2024/01/19 02:35:03;;;;;;;25.48;12.02;;;-1.70;99.90;;;-2.81;100.00;96990.75;4996783;28;20410;-37
2024/01/19 02:37:29;;;;;;;23.05;11.38;;;-1.70;99.90;;;-2.82;100.00;96989.00;4994821;28;20030;-36
2024/01/19 02:39:55;;;;;;;25.08;12.18;;;-1.70;99.90;;;-2.87;100.00;96981.25;4998096;28;20061;-36
2024/01/19 02:42:20;;;;;;;23.58;11.70;;;-1.70;99.90;;;-2.83;100.00;96997.63;4996049;28;20542;-37
2024/01/19 02:44:46;;;;;;;28.58;12.95;;;-1.70;99.90;;;-2.94;100.00;96995.78;4998199;28;20315;-36
2024/01/19 02:47:12;;;;;;;26.98;12.32;;;-1.70;99.90;;;-3.00;100.00;96993.13;4994086;28;20724;-36
2024/01/19 02:49:38;;;;;;;24.60;12.38;;;-1.70;99.90;;;-2.94;100.00;97003.53;4994429;28;20034;-37
2024/01/19 02:52:03;;;;;;;25.88;11.95;;;-1.80;99.90;;;-2.99;100.00;97001.78;4993803;28;20041;-36
2024/01/19 02:54:29;;;;;;;22.75;11.45;;;-1.80;99.90;;;-3.02;100.00;97005.16;4995481;28;20061;-36
2024/01/19 02:56:55;;;;;;;26.40;11.45;;;-1.90;99.90;;;-3.06;100.00;97011.16;4995335;28;20038;-36
2024/01/19 02:59:21;;;;;;;20.98;10.65;;;-2.00;99.90;;;-3.18;100.00;97009.28;4992849;28;20034;-36
2024/01/19 03:01:46;;;;;;;22.90;11.35;;;-2.00;99.90;;;-3.35;100.00;97011.69;4994524;28;20079;-36
2024/01/19 03:04:12;;;;;;;26.98;12.00;;;-2.20;99.90;;;-3.49;100.00;97008.94;4993319;28;20041;-37
2024/01/19 03:06:38;;;;;;;23.83;11.48;;;-2.30;99.90;;;-3.60;100.00;97017.41;4973522;28;20361;-37
2024/01/19 03:09:04;;;;;;;22.85;10.45;;;-2.40;99.90;;;-3.63;100.00;97025.09;4992435;28;20073;-37
2024/01/19 03:11:30;;;;;;;23.02;11.25;;;-2.50;99.90;;;-3.76;100.00;97027.53;4991302;28;20266;-37
2024/01/19 03:13:55;;;;;;;21.55;10.77;;;-2.60;99.90;;;-3.82;100.00;97024.88;4996161;28;20081;-36
2024/01/19 03:16:22;;;;;;;19.92;10.98;;;-2.60;99.90;;;-3.85;100.00;97028.25;4990182;28;20061;-36
2024/01/19 03:18:47;;;;;;;26.05;11.23;;;-2.60;99.90;;;-3.94;100.00;97025.56;4989740;28;20111;-36
2024/01/19 03:21:13;;;;;;;23.27;10.13;;;-2.70;99.90;;;-3.99;100.00;97027.19;4993449;28;20088;-36
2024/01/19 03:23:39;;;;;;;22.02;10.93;;;-2.80;99.90;;;-4.09;100.00;97028.78;4991537;28;20052;-37
2024/01/19 03:26:05;;;;;;;24.95;10.75;;;-2.80;99.90;;;-4.08;100.00;97027.94;4993810;28;20057;-36
2024/01/19 03:28:31;;;;;;;21.55;10.45;;;-2.80;99.90;;;-4.19;100.00;97019.19;4993722;28;20383;-36
2024/01/19 03:30:57;;;;;;;22.95;11.35;;;-2.90;99.90;;;-4.16;100.00;97033.81;4995234;28;20032;-37
2024/01/19 03:33:23;;;;;;;21.30;11.27;;;-2.90;99.90;;;-4.09;100.00;97049.41;4992187;28;20141;-37
2024/01/19 03:35:49;;;;;;;19.35;10.70;;;-2.90;99.90;;;-4.15;100.00;97043.28;4996499;28;20493;-37
2024/01/19 03:38:15;;;;;;;20.80;10.70;;;-2.90;99.90;;;-4.16;100.00;97044.09;4996156;28;20179;-37
2024/01/19 03:40:41;;;;;;;24.77;11.38;;;-3.00;99.90;;;-4.14;100.00;97050.19;4997273;28;20032;-37
2024/01/19 03:43:07;;;;;;;25.17;10.45;;;-3.00;99.90;;;-4.17;100.00;97050.97;4989801;28;20394;-37
2024/01/19 03:45:33;;;;;;;22.35;11.07;;;-3.00;99.90;;;-4.13;100.00;97055.31;4992142;28;20109;-37
2024/01/19 03:47:58;;;;;;;21.85;11.25;;;-2.90;99.90;;;-4.10;100.00;97052.81;4991940;28;20060;-37
2024/01/19 03:50:24;;;;;;;23.90;10.63;;;-2.90;99.90;;;-4.06;100.00;97052.00;4995865;28;20025;-37
2024/01/19 03:52:50;;;;;;;24.10;11.30;;;-2.90;99.90;;;-4.01;100.00;97054.66;4993430;28;20092;-37
2024/01/19 03:55:16;;;;;;;22.27;10.38;;;-2.80;99.90;;;-4.03;100.00;97044.31;4993934;28;20026;-37
2024/01/19 03:57:42;;;;;;;22.05;11.35;;;-2.80;99.90;;;-3.90;100.00;97044.50;4986437;28;20036;-37
2024/01/19 04:00:08;;;;;;;23.08;10.57;;;-2.70;99.90;;;-3.81;100.00;97048.91;4998282;28;20041;-37
2024/01/19 04:02:35;;;;;;;22.63;10.55;;;-2.70;99.90;;;-3.78;100.00;97048.97;4992210;28;20201;-37
2024/01/19 04:05:01;;;;;;;23.58;11.23;;;-2.70;99.90;;;-3.74;100.00;97043.00;4994914;28;20533;-37
2024/01/19 04:07:27;;;;;;;21.80;10.60;;;-2.60;99.90;;;-3.68;100.00;97043.97;4987711;28;20037;-37
2024/01/19 04:09:53;;;;;;;24.33;11.35;;;-2.60;99.90;;;-3.63;100.00;97038.84;4994858;28;20407;-37
2024/01/19 04:12:18;;;;;;;20.33;10.00;;;-2.50;99.90;;;-3.62;100.00;97044.88;4990607;28;20032;-37
2024/01/19 04:14:45;;;;;;;23.00;11.32;;;-2.50;99.90;;;-3.69;100.00;97049.94;4995345;28;20052;-37
2024/01/19 04:17:12;;;;;;;22.17;11.02;;;-2.60;99.90;;;-3.71;100.00;97058.53;4995821;28;20105;-37
2024/01/19 04:19:39;;;;;;;22.10;10.93;;;-2.60;99.90;;;-3.79;100.00;97063.53;4992437;28;20030;-37
2024/01/19 04:22:06;;;;;;;20.98;10.27;;;-2.70;99.90;;;-3.88;100.00;97063.41;4989685;28;20945;-37
2024/01/19 04:24:32;;;;;;;21.58;10.73;;;-2.70;99.90;;;-3.99;100.00;97054.69;4992638;28;20030;-37
2024/01/19 04:26:57;;;;;;;24.80;10.75;;;-2.80;99.90;;;-4.05;100.00;97058.03;4990680;28;20068;-37
2024/01/19 04:29:24;;;;;;;24.85;10.75;;;-2.90;99.90;;;-4.06;100.00;97062.31;4993080;28;20124;-37
2024/01/19 04:31:49;;;;;;;26.23;10.73;;;-2.90;99.90;;;-4.05;100.00;97061.47;5012513;22;20382;-35
2024/01/19 04:34:15;;;;;;;22.38;10.88;;;-2.90;99.90;;;-4.02;100.00;97060.63;4977627;28;20049;-35
2024/01/19 04:36:41;;;;;;;23.95;11.38;;;-2.80;99.90;;;-4.01;100.00;97057.22;4974216;28;20033;-35
2024/01/19 04:39:07;;;;;;;26.25;11.35;;;-2.80;99.90;;;-4.06;100.00;97039.13;4972767;28;20034;-35
2024/01/19 04:41:33;;;;;;;20.60;10.90;;;-2.80;99.90;;;-4.01;100.00;97051.22;4975435;28;20034;-35
2024/01/19 04:43:59;;;;;;;25.60;10.98;;;-2.80;99.90;;;-3.96;100.00;97076.19;4975747;28;20046;-35
2024/01/19 04:46:24;;;;;;;24.88;10.75;;;-2.80;99.90;;;-4.00;100.00;97069.28;4974847;28;20419;-35
2024/01/19 04:48:50;;;;;;;23.90;10.65;;;-2.80;99.90;;;-4.00;100.00;97078.69;4978860;28;20085;-35
2024/01/19 04:51:16;;;;;;;21.90;11.10;;;-2.80;99.90;;;-4.03;100.00;97079.53;4979424;28;20031;-35
2024/01/19 04:53:42;;;;;;;27.00;11.38;;;-2.80;99.90;;;-3.98;100.00;97087.31;4977007;28;20030;-35
2024/01/19 04:56:08;;;;;;;23.23;10.23;;;-2.80;99.90;;;-3.92;100.00;97087.41;4979776;28;20042;-34
2024/01/19 04:58:37;;;;;;;21.90;10.43;;;-2.70;99.90;;;-3.85;100.00;97100.41;4979904;28;20490;-34
2024/01/19 05:01:03;;;;;;;20.80;10.50;;;-2.70;99.90;;;-3.75;100.00;97103.09;4975535;28;20108;-35
2024/01/19 05:03:30;;;;;;;22.95;10.27;;;-2.60;99.90;;;-3.69;100.00;97106.66;4970069;28;20038;-35
2024/01/19 05:05:55;;;;;;;20.90;9.75;;;-2.60;99.90;;;-3.65;100.00;97103.25;4977568;28;20616;-34
2024/01/19 05:08:21;;;;;;;20.02;9.70;;;-2.50;99.90;;;-3.57;100.00;97117.97;4972429;28;20042;-34
2024/01/19 05:10:47;;;;;;;21.70;10.18;;;-2.50;99.90;;;-3.49;100.00;97109.50;4977683;28;20096;-35
2024/01/19 05:13:13;;;;;;;20.73;10.52;;;-2.40;99.90;;;-3.44;100.00;97112.16;4977267;28;20061;-34
2024/01/19 05:15:39;;;;;;;19.23;10.77;;;-2.30;99.90;;;-3.42;100.00;97107.03;4975206;28;20034;-35
2024/01/19 05:18:05;;;;;;;21.08;10.68;;;-2.30;99.90;;;-3.36;100.00;97115.69;4974704;28;20402;-34
2024/01/19 05:20:31;;;;;;;24.95;11.63;;;-2.30;99.90;;;-3.34;100.00;97123.44;4975449;28;20039;-35
2024/01/19 05:22:57;;;;;;;24.17;11.18;;;-2.20;99.90;;;-3.30;100.00;97122.66;4977919;28;20042;-35
2024/01/19 05:25:23;;;;;;;25.27;12.38;;;-2.20;99.90;;;-3.31;100.00;97128.66;4981248;28;20823;-35
2024/01/19 05:27:53;;;;;;;22.00;11.23;;;-2.20;99.90;;;-3.29;100.00;97134.69;4981511;28;20034;-35
2024/01/19 05:30:20;;;;;;;24.92;10.57;;;-2.20;99.90;;;-3.38;100.00;97122.53;4975549;28;20520;-34
2024/01/19 05:32:46;;;;;;;23.58;11.00;;;-2.20;99.90;;;-3.39;100.00;97128.56;4979986;28;20034;-34
2024/01/19 05:35:12;;;;;;;20.95;10.60;;;-2.20;99.90;;;-3.33;100.00;97143.25;4973880;28;20179;-35
2024/01/19 05:37:38;;;;;;;23.10;10.73;;;-2.20;99.90;;;-3.45;100.00;97141.34;4969631;28;20042;-35
2024/01/19 05:40:04;;;;;;;21.42;11.43;;;-2.20;99.90;;;-3.43;100.00;97149.09;4974330;28;20397;-35
2024/01/19 05:42:30;;;;;;;28.73;11.40;;;-2.30;99.90;;;-3.44;100.00;97149.97;4980158;28;20415;-35
2024/01/19 05:44:55;;;;;;;25.52;10.98;;;-2.30;99.90;;;-3.48;100.00;97159.38;4977982;28;20438;-34
2024/01/19 05:47:21;;;;;;;25.20;12.07;;;-2.30;99.90;;;-3.49;100.00;97160.22;4986038;28;20051;-35
2024/01/19 05:49:47;;;;;;;22.20;10.90;;;-2.30;99.90;;;-3.46;100.00;97168.00;4972557;28;20034;-35
2024/01/19 05:52:13;;;;;;;25.63;11.23;;;-2.40;99.90;;;-3.49;100.00;97160.22;4977047;28;20415;-34
2024/01/19 05:54:39;;;;;;;24.95;9.90;;;-2.30;99.90;;;-3.46;100.00;97183.47;4978036;28;20584;-34
2024/01/19 05:57:05;;;;;;;19.55;10.07;;;-2.30;99.90;;;-3.49;100.00;97183.41;4973393;28;20540;-34
2024/01/19 05:59:32;;;;;;;20.50;10.35;;;-2.30;99.90;;;-3.54;100.00;97185.03;4975258;28;20038;-34
2024/01/19 06:01:58;;;;;;;19.40;10.00;;;-2.40;99.90;;;-3.54;100.00;97187.63;4974615;28;20115;-34
2024/01/19 06:04:24;;;;;;;24.20;9.82;;;-2.40;99.90;;;-3.53;100.00;97197.09;4976142;28;20038;-35
2024/01/19 06:06:50;;;;;;;16.95;9.73;;;-2.40;99.90;;;-3.66;100.00;97184.03;4977861;28;20037;-34
2024/01/19 06:09:15;;;;;;;18.75;10.15;;;-2.40;99.90;;;-3.56;100.00;97207.38;4980019;28;20578;-34
2024/01/19 06:11:41;;;;;;;21.33;10.20;;;-2.40;99.90;;;-3.55;100.00;97209.97;4979777;28;20109;-34
2024/01/19 06:14:07;;;;;;;17.23;9.45;;;-2.40;99.90;;;-3.56;100.00;97208.22;4980428;28;20490;-35
2024/01/19 06:16:32;;;;;;;23.75;10.30;;;-2.40;99.90;;;-3.55;100.00;97207.38;4976095;28;20034;-35
2024/01/19 06:18:58;;;;;;;26.05;11.18;;;-2.40;99.90;;;-3.47;100.00;97223.81;4970826;28;20046;-34
2024/01/19 06:21:24;;;;;;;26.95;10.60;;;-2.30;99.90;;;-3.42;100.00;97228.22;4974940;28;20034;-35
2024/01/19 06:23:50;;;;;;;21.42;9.80;;;-2.30;99.90;;;-3.41;100.00;97232.50;4974488;28;20054;-34
2024/01/19 06:26:16;;;;;;;19.77;10.02;;;-2.30;99.90;;;-3.41;100.00;97228.22;4992155;28;20113;-34
2024/01/19 06:28:42;;;;;;;18.88;9.45;;;-2.20;99.90;;;-3.41;100.00;97235.97;4974800;28;20045;-34
2024/01/19 06:31:10;;;;;;;22.30;10.43;;;-2.20;99.90;;;-3.44;100.00;97233.34;4978072;28;20034;-35
2024/01/19 06:33:38;;;;;;;18.73;9.93;;;-2.20;99.90;;;-3.39;100.00;97236.84;4979092;28;20121;-34
2024/01/19 06:36:11;;;;;;;19.05;9.80;;;-2.20;99.90;;;-3.39;100.00;97236.84;4976722;28;20325;-35
2024/01/19 06:38:37;;;;;;;23.92;11.10;;;-2.20;99.90;;;-3.43;100.00;97241.94;4977643;28;20030;-35
2024/01/19 06:41:03;;;;;;;22.08;10.52;;;-2.30;99.90;;;-3.46;100.00;97248.78;4978653;28;20526;-34
2024/01/19 06:43:29;;;;;;;23.20;10.07;;;-2.30;99.90;;;-3.52;100.00;97258.97;4976918;28;20049;-34
2024/01/19 06:45:55;;;;;;;20.92;10.32;;;-2.30;99.90;;;-3.52;100.00;97263.28;4975488;28;20038;-35
2024/01/19 06:48:21;;;;;;;18.65;10.13;;;-2.30;99.90;;;-3.56;100.00;97267.50;4976555;28;20434;-35
2024/01/19 06:50:47;;;;;;;24.25;10.82;;;-2.40;99.90;;;-3.64;100.00;97269.13;4980410;28;20072;-35
2024/01/19 06:53:12;;;;;;;25.98;12.13;;;-2.30;99.90;;;-3.67;100.00;97282.81;4961237;28;20410;-35
2024/01/19 06:55:38;;;;;;;22.65;10.13;;;-2.40;99.90;;;-3.64;100.00;97284.56;4980696;28;20105;-35
2024/01/19 06:58:04;;;;;;;17.55;9.60;;;-2.50;99.90;;;-3.71;100.00;97278.44;4980641;28;20042;-35
2024/01/19 07:00:29;;;;;;;19.92;9.65;;;-2.50;99.90;;;-3.80;100.00;97278.28;4980643;28;20172;-35
2024/01/19 07:02:55;;;;;;;22.42;10.52;;;-2.50;99.90;;;-3.77;100.00;97301.50;4978689;28;20412;-35
2024/01/19 07:05:21;;;;;;;21.08;10.23;;;-2.60;99.90;;;-3.93;100.00;97279.78;4981674;28;20049;-34
2024/01/19 07:07:46;;;;;;;23.00;10.77;;;-2.60;99.90;;;-3.89;100.00;97303.91;4968700;28;20511;-34
2024/01/19 07:10:12;;;;;;;21.52;10.27;;;-2.60;99.90;;;-3.88;100.00;97310.78;4978000;28;20039;-34
2024/01/19 07:12:38;;;;;;;22.25;9.88;;;-2.70;99.90;;;-3.90;100.00;97320.19;4978384;28;20301;-34
2024/01/19 07:15:06;;;;;;;19.05;9.52;;;-2.70;99.90;;;-3.89;100.00;97329.66;4979753;28;20031;-34
2024/01/19 07:17:32;;;;;;;19.08;9.75;;;-2.80;99.90;;;-3.90;100.00;97327.91;4976301;28;20041;-34
2024/01/19 07:19:59;;;;;;;20.02;9.73;;;-2.80;99.90;;;-4.02;100.00;97310.50;4980937;28;20034;-35
2024/01/19 07:22:27;;;;;;;21.75;10.90;;;-2.80;99.90;;;-3.92;100.00;97338.19;4980089;28;20034;-35
2024/01/19 07:24:53;;;;;;;24.10;10.52;;;-2.80;99.90;;;-3.93;100.00;97338.16;4982997;28;20292;-35
2024/01/19 07:27:19;;;;;;;22.17;11.05;;;-2.80;99.90;;;-3.92;100.00;97347.63;4984644;28;20093;-35
2024/01/19 07:29:44;;;;;;;21.90;10.52;;;-2.80;99.90;;;-3.96;100.00;97343.28;4987588;28;20022;-35
2024/01/19 07:32:10;;;;;;;22.60;10.48;;;-2.80;99.90;;;-3.98;100.00;97357.81;4988187;28;20053;-35
2024/01/19 07:34:36;;;;;;;18.33;9.55;;;-2.90;99.90;;;-4.01;100.00;97353.47;4988445;28;20045;-35
2024/01/19 07:37:02;;;;;;;21.92;9.85;;;-2.90;99.90;;;-4.09;100.00;97344.72;4983950;28;20030;-35
2024/01/19 07:39:28;;;;;;;21.08;10.57;;;-2.90;99.90;;;-3.99;100.00;97359.50;4982865;28;20075;-35
2024/01/19 07:41:53;;;;;;;20.52;10.38;;;-2.80;99.90;;;-3.93;100.00;97363.91;4979227;28;20034;-35
2024/01/19 07:44:19;;;;;;;18.77;9.93;;;-2.80;99.90;;;-3.86;100.00;97373.50;4980577;28;20025;-35
2024/01/19 07:46:45;;;;;;;23.63;10.82;;;-2.80;99.90;;;-3.81;100.00;97371.03;4993355;28;20037;-35
2024/01/19 07:49:11;;;;;;;21.67;10.35;;;-2.70;99.90;;;-3.67;100.00;97377.31;4979834;28;20058;-35
2024/01/19 07:51:38;;;;;;;22.48;11.13;;;-2.60;99.90;;;-3.56;100.00;97388.69;4979685;28;20089;-34
2024/01/19 07:54:03;;;;;;;21.70;11.45;;;-2.50;99.90;;;-3.44;100.00;97390.63;4979481;28;20458;-34
2024/01/19 07:56:29;;;;;;;25.55;11.75;;;-2.30;99.90;;;-3.39;100.00;97389.00;4975472;28;20513;-34
2024/01/19 07:58:55;;;;;;;27.83;12.35;;;-2.30;99.90;;;-3.36;100.00;97394.19;4978285;28;20379;-35
2024/01/19 08:01:21;;;;;;;27.58;12.82;;;-2.20;99.90;;;-3.26;100.00;97397.81;4975826;28;20030;-34
2024/01/19 08:03:47;;;;;;;27.63;13.88;;;-2.10;99.90;;;-3.29;100.00;97377.97;4975335;28;20043;-34
2024/01/19 08:06:13;;;;;;;26.08;12.32;;;-2.10;99.90;;;-3.16;100.00;97401.41;4987482;28;20276;-35
2024/01/19 08:08:39;;;;;;;27.85;13.07;;;-2.00;99.90;;;-3.15;100.00;97398.84;4962534;28;20126;-34
2024/01/19 08:11:04;;;;;;;25.48;12.60;;;-2.00;99.90;;;-3.23;100.00;97402.16;4978620;28;20030;-34
2024/01/19 08:13:30;;;;;;;27.58;13.90;;;-2.00;99.90;;;-3.18;100.00;97409.13;4980663;28;20038;-34
2024/01/19 08:15:56;;;;;;;22.65;12.25;;;-2.00;99.90;;;-3.20;100.00;97421.13;4979112;28;20065;-34
2024/01/19 08:18:21;;;;;;;25.50;12.65;;;-2.00;99.90;;;-3.16;100.00;97424.63;4977891;28;20050;-34
2024/01/19 08:20:47;;;;;;;25.23;12.25;;;-2.00;99.90;;;-3.13;100.00;97430.72;4979095;28;20410;-34
2024/01/19 08:23:13;;;;;;;24.77;12.40;;;-2.00;99.90;;;-3.10;100.00;97438.50;4980568;28;20029;-34
2024/01/19 08:25:38;;;;;;;27.95;13.70;;;-2.00;99.90;;;-3.07;100.00;97437.69;4978808;28;20514;-35
2024/01/19 08:28:04;;;;;;;25.40;12.75;;;-2.00;99.90;;;-3.11;100.00;97431.59;4991937;28;20034;-35
2024/01/19 08:30:30;;;;;;;23.23;12.02;;;-2.00;99.90;;;-3.13;100.00;97442.75;4978008;28;20085;-35
2024/01/19 08:32:56;;;;;;;26.08;13.60;;;-2.00;99.90;;;-3.16;100.00;97445.25;4979041;28;20041;-35
2024/01/19 08:35:22;;;;;;;26.60;13.15;;;-2.10;99.90;;;-3.21;100.00;97449.47;4976768;28;20061;-34
2024/01/19 08:37:47;;;;;;;25.25;13.38;;;-2.10;99.90;;;-3.27;100.00;97453.69;4975625;28;20033;-34
2024/01/19 08:40:13;;;;;;;28.38;11.82;;;-2.20;99.90;;;-3.31;100.00;97458.75;4976399;28;20030;-34
2024/01/19 08:42:39;;;;;;;26.17;11.77;;;-2.20;99.90;;;-3.34;100.00;97461.28;4977064;28;20155;-35
2024/01/19 08:45:06;;;;;;;23.85;12.45;;;-2.30;99.90;;;-3.46;100.00;97449.03;4976117;28;20483;-34
2024/01/19 08:47:32;;;;;;;27.15;12.93;;;-2.30;99.90;;;-3.37;100.00;97464.69;4975435;28;20113;-35
2024/01/19 08:50:02;;;;;;;23.38;11.93;;;-2.30;99.90;;;-3.34;100.00;97475.06;4977090;28;20414;-35
2024/01/19 08:52:32;;;;;;;27.00;12.07;;;-2.20;99.90;;;-3.32;100.00;97473.38;4976339;28;20030;-35
2024/01/19 08:54:58;;;;;;;25.10;12.68;;;-2.20;99.90;;;-3.33;100.00;97481.94;4988960;28;20048;-35
2024/01/19 08:57:24;;;;;;;23.95;12.10;;;-2.20;99.90;;;-3.33;100.00;97481.94;4973744;28;20038;-35
2024/01/19 08:59:50;;;;;;;24.80;12.85;;;-2.20;99.90;;;-3.30;100.00;97489.75;4976208;28;20038;-35
2024/01/19 09:02:16;;;;;;;23.20;11.50;;;-2.20;99.90;;;-3.33;100.00;97484.53;4976616;28;20754;-34
2024/01/19 09:04:42;;;;;;;25.08;12.43;;;-2.10;99.90;;;-3.24;100.00;97486.41;4977650;28;20491;-33
2024/01/19 09:07:07;;;;;;;23.98;12.13;;;-2.10;99.90;;;-3.10;100.00;97495.28;4972064;28;20038;-34
2024/01/19 09:09:33;;;;;;;24.90;12.73;;;-2.00;99.90;;;-3.02;100.00;97497.13;4974523;28;20034;-35
2024/01/19 09:11:59;;;;;;;26.55;12.70;;;-1.90;99.90;;;-2.95;100.00;97501.56;4978055;28;20039;-33
2024/01/19 09:14:26;;;;;;;28.15;13.10;;;-1.90;99.90;;;-2.93;100.00;97497.28;4974548;28;20034;-34
2024/01/19 09:16:52;;;;;;;26.85;13.93;;;-1.80;99.90;;;-2.81;100.00;97509.53;4976921;28;20027;-34
2024/01/19 09:19:18;;;;;;;28.30;13.45;;;-1.80;99.90;;;-2.76;100.00;97511.34;4978115;28;20049;-35
2024/01/19 09:21:44;;;;;;;23.38;12.00;;;-1.70;99.90;;;-2.73;100.00;97511.41;4977216;28;20058;-34
2024/01/19 09:24:11;;;;;;;26.40;13.40;;;-1.70;99.90;;;-2.58;100.00;97520.25;4975222;28;20034;-34
2024/01/19 09:26:37;;;;;;;29.75;13.70;;;-1.60;99.90;;;-2.52;100.00;97525.53;4965852;28;20039;-34
2024/01/19 09:29:03;;;;;;;29.42;13.45;;;-1.50;99.90;;;-2.47;100.00;97533.34;4972577;28;20410;-34
2024/01/19 09:31:29;;;;;;;27.80;13.98;;;-1.40;99.90;;;-2.42;100.00;97547.19;4979118;28;20372;-34
2024/01/19 09:33:55;;;;;;;26.80;14.15;;;-1.30;99.90;;;-2.33;100.00;97553.41;4984694;28;20573;-34
2024/01/19 09:36:20;;;;;;;27.45;13.02;;;-1.30;99.90;;;-2.22;100.00;97563.91;4981844;28;20030;-35
2024/01/19 09:38:46;;;;;;;30.95;14.70;;;-1.20;99.90;;;-2.08;100.00;97566.72;4981752;28;20065;-35
2024/01/19 09:41:29;;;;;;;25.95;13.30;;;-1.10;99.90;;;-1.99;100.00;97565.97;4980563;28;20391;-35
2024/01/19 09:43:55;;;;;;;27.60;14.30;;;-1.00;99.90;;;-1.95;100.00;97563.44;4983536;28;20104;-34
2024/01/19 09:46:30;;;;;;;27.05;13.15;;;-0.90;99.90;;;-1.94;100.00;97570.38;4983217;28;20037;-34
2024/01/19 09:49:18;;;;;;;30.58;15.30;;;-0.90;99.90;;;-2.02;100.00;97574.53;4983782;28;20034;-34
2024/01/19 09:52:02;;;;;;;27.05;14.38;;;-1.00;99.90;;;-2.08;100.00;97578.75;4982259;28;20026;-34
2024/01/19 09:54:33;;;;;;;28.80;13.80;;;-1.00;99.90;;;-2.11;100.00;97588.19;4980041;28;20254;-34
2024/01/19 09:57:03;;;;;;;27.30;14.15;;;-1.00;99.90;;;-2.13;100.00;97596.78;4978261;28;20030;-34